Time;durP1;ratioP1;P1;durP2;ratioP2;P2;SDS_P1;SDS_P2;PMS_P1;PMS_P2;Temp;Humidity;BMP_temperature;BMP_pressure;BME280_temperature;BME280_humidity;BME280_pressure;Samples;Min_cycle;Max_cycle;Signal;HPM_P1;HPM_P2
2021/06/16 00:00:21;;;;;;;;;;;;;;;-144.31;74.31;74499.19;4963600;28;19918;-74
2021/06/16 00:02:49;;;;;;;;;;;;;;;-144.31;74.29;74499.19;4974152;28;20431;-74
2021/06/16 00:05:19;;;;;;;;;;;;;;;-144.31;74.31;74505.19;4962324;28;19918;-74
2021/06/16 00:07:44;;;;;;;;;;;;;;;-144.31;74.28;74507.19;4968988;28;19938;-74
2021/06/16 00:10:10;;;;;;;;;;;;;;;-144.31;74.25;74501.19;4960010;28;19929;-74
2021/06/16 00:12:41;;;;;;;;;;;;;;;-144.31;74.25;74501.19;4962285;28;19922;-74
2021/06/16 00:15:09;;;;;;;;;;;;;;;-144.31;74.24;74507.19;4957436;28;19924;-74
2021/06/16 00:17:34;;;;;;;;;;;;;;;-144.31;74.23;74509.19;4978868;28;19918;-75
2021/06/16 00:19:59;;;;;;;;;;;;;;;-144.31;74.19;74509.19;4971639;28;19917;-74
2021/06/16 00:22:25;;;;;;;;;;;;;;;-144.31;74.21;74517.16;4985025;28;19926;-74
2021/06/16 00:24:52;;;;;;;;;;;;;;;-144.31;74.24;74521.16;4964131;28;20655;-74
2021/06/16 00:27:19;;;;;;;;;;;;;;;-144.31;74.25;74525.16;4978885;28;19992;-74
2021/06/16 00:29:44;;;;;;;;;;;;;;;-144.31;74.21;74525.16;4972085;28;19969;-74
2021/06/16 00:32:12;;;;;;;;;;;;;;;-144.31;74.23;74531.13;4961780;28;19926;-74
2021/06/16 00:34:40;;;;;;;;;;;;;;;-144.31;74.21;74529.16;4944138;28;19926;-74
2021/06/16 00:37:05;;;;;;;;;;;;;;;-144.31;74.18;74531.13;4963928;28;21166;-75
2021/06/16 00:39:33;;;;;;;;;;;;;;;-144.31;74.23;74535.13;4973445;28;19922;-75
2021/06/16 00:41:59;;;;;;;;;;;;;;;-144.31;74.18;74533.13;4961792;28;19922;-75
2021/06/16 00:44:27;;;;;;;;;;;;;;;-144.31;74.20;74529.16;4960182;28;19918;-74
2021/06/16 00:46:54;;;;;;;;;;;;;;;-144.31;74.19;74533.13;4974653;28;19918;-74
2021/06/16 00:49:20;;;;;;;;;;;;;;;-144.31;74.16;74533.13;4962033;28;19929;-74
2021/06/16 00:51:45;;;;;;;;;;;;;;;-144.31;74.13;74537.13;4958386;28;20361;-75
2021/06/16 00:54:11;;;;;;;;;;;;;;;-144.31;74.09;74543.13;4974958;28;19922;-75
2021/06/16 00:56:37;;;;;;;;;;;;;;;-144.31;74.06;74549.13;4976800;28;20391;-74
2021/06/16 00:59:02;;;;;;;;;;;;;;;-144.31;74.03;74551.09;4976590;28;20533;-75
2021/06/16 01:01:28;;;;;;;;;;;;;;;-144.31;74.02;74551.09;4961054;28;20032;-75
2021/06/16 01:03:59;;;;;;;;;;;;;;;-144.31;73.99;74559.09;4975272;28;19925;-75
2021/06/16 01:06:45;;;;;;;;;;;;;;;-144.31;73.97;74557.09;4962445;28;20389;-75
2021/06/16 01:09:14;;;;;;;;;;;;;;;-144.31;73.90;74555.09;4965530;28;19914;-75
2021/06/16 01:11:58;;;;;;;;;;;;;;;-144.31;73.92;74561.09;4975446;28;20384;-75
2021/06/16 01:14:35;;;;;;;;;;;;;;;-144.31;73.87;74559.09;4960548;28;19926;-75
2021/06/16 01:17:05;;;;;;;;;;;;;;;-144.31;73.84;74563.09;4962159;28;19938;-75
2021/06/16 01:19:30;;;;;;;;;;;;;;;-144.31;73.81;74567.09;4974376;28;19914;-75
2021/06/16 01:22:02;;;;;;;;;;;;;;;-144.31;73.75;74567.09;4941828;28;19942;-75
2021/06/16 01:24:29;;;;;;;;;;;;;;;-144.31;73.68;74563.09;4975233;28;19917;-75
2021/06/16 01:26:55;;;;;;;;;;;;;;;-144.31;73.65;74567.09;4972396;28;19914;-75
2021/06/16 01:29:23;;;;;;;;;;;;;;;-144.31;73.60;74565.09;4962267;28;20364;-75
2021/06/16 01:31:49;;;;;;;;;;;;;;;-144.31;73.60;74573.06;4959618;28;19918;-75
2021/06/16 01:34:16;;;;;;;;;;;;;;;-144.31;73.63;74567.09;4961038;28;19922;-75
2021/06/16 01:36:45;;;;;;;;;;;;;;;-144.31;73.63;74573.06;4978153;28;19918;-75
2021/06/16 01:39:13;;;;;;;;;;;;;;;-144.31;73.69;74573.06;4964559;28;19918;-75
2021/06/16 01:41:39;;;;;;;;;;;;;;;-144.31;73.73;74573.06;4974774;28;83654;-75
2021/06/16 01:44:05;;;;;;;;;;;;;;;-144.31;73.76;74567.09;4961483;28;20399;-75
2021/06/16 01:46:31;;;;;;;;;;;;;;;-144.31;73.80;74571.06;4963687;28;19918;-75
2021/06/16 01:48:57;;;;;;;;;;;;;;;-144.31;73.84;74577.06;4977835;28;19933;-75
2021/06/16 01:51:23;;;;;;;;;;;;;;;-144.31;73.85;74575.06;4963656;28;19925;-75
2021/06/16 01:53:49;;;;;;;;;;;;;;;-144.31;73.84;74565.09;4962700;28;20588;-75
2021/06/16 01:56:15;;;;;;;;;;;;;;;-144.31;73.84;74583.06;4959238;28;20095;-75
2021/06/16 01:58:45;;;;;;;;;;;;;;;-144.31;73.83;74575.06;4963401;28;20287;-75
2021/06/16 02:01:10;;;;;;;;;;;;;;;-144.31;73.83;74579.06;4975649;28;20381;-74
2021/06/16 02:03:38;;;;;;;;;;;;;;;-144.31;73.80;74577.06;4962985;28;19924;-75
2021/06/16 02:06:04;;;;;;;;;;;;;;;-144.31;73.79;74575.06;4962008;28;20397;-75
2021/06/16 02:08:30;;;;;;;;;;;;;;;-144.31;73.78;74579.06;4962196;28;19918;-75
2021/06/16 02:10:59;;;;;;;;;;;;;;;-144.31;73.79;74581.06;4974250;28;19918;-75
2021/06/16 02:13:38;;;;;;;;;;;;;;;-144.31;73.78;74577.06;4960079;28;19918;-74
2021/06/16 02:16:08;;;;;;;;;;;;;;;-144.31;73.77;74579.06;4976276;28;19915;-75
2021/06/16 02:18:43;;;;;;;;;;;;;;;-144.31;73.74;74581.06;4972550;28;19997;-75
2021/06/16 02:21:08;;;;;;;;;;;;;;;-144.31;73.71;74591.03;4961534;28;20372;-74
2021/06/16 02:23:34;;;;;;;;;;;;;;;-144.31;73.68;74589.06;4965330;28;20063;-75
2021/06/16 02:26:01;;;;;;;;;;;;;;;-144.31;73.66;74593.03;4960349;28;19914;-74
2021/06/16 02:28:27;;;;;;;;;;;;;;;-144.31;73.68;74595.03;4963141;28;20406;-75
2021/06/16 02:30:52;;;;;;;;;;;;;;;-144.31;73.68;74597.03;4977246;28;19918;-75
2021/06/16 02:33:18;;;;;;;;;;;;;;;-144.31;73.64;74599.03;4963211;28;20026;-75
2021/06/16 02:35:43;;;;;;;;;;;;;;;-144.31;73.60;74593.03;4978675;28;19980;-75
2021/06/16 02:38:11;;;;;;;;;;;;;;;-144.31;73.57;74599.03;4958549;28;19926;-75
2021/06/16 02:40:37;;;;;;;;;;;;;;;-144.31;73.55;74603.03;4958804;28;20304;-75
2021/06/16 02:43:03;;;;;;;;;;;;;;;-144.31;73.54;74601.03;4958793;28;20564;-75
2021/06/16 02:45:28;;;;;;;;;;;;;;;-144.31;73.51;74599.03;4968687;28;20319;-75
2021/06/16 02:47:57;;;;;;;;;;;;;;;-144.31;73.49;74601.03;4974326;28;19961;-75
2021/06/16 02:50:28;;;;;;;;;;;;;;;-144.31;73.48;74601.03;4957329;28;20387;-75
2021/06/16 02:52:55;;;;;;;;;;;;;;;-144.31;73.49;74611.00;4954974;28;20435;-75
2021/06/16 02:55:24;;;;;;;;;;;;;;;-144.31;73.50;74617.00;4961849;28;19985;-75
2021/06/16 02:57:51;;;;;;;;;;;;;;;-144.31;73.47;74615.00;4961532;28;19925;-75
2021/06/16 03:00:17;;;;;;;;;;;;;;;-144.31;73.44;74613.00;4976609;28;19930;-75
2021/06/16 03:02:45;;;;;;;;;;;;;;;-144.31;73.42;74615.00;4961645;28;19960;-75
2021/06/16 03:05:11;;;;;;;;;;;;;;;-144.31;73.38;74623.00;4973403;28;19957;-74
2021/06/16 03:07:38;;;;;;;;;;;;;;;-144.31;73.33;74623.00;4971424;28;19949;-75
2021/06/16 03:10:04;;;;;;;;;;;;;;;-144.31;73.27;74627.00;4962890;28;19917;-75
2021/06/16 03:12:33;;;;;;;;;;;;;;;-144.31;73.21;74630.97;4962389;28;20424;-74
2021/06/16 03:14:59;;;;;;;;;;;;;;;-144.31;73.18;74642.97;4973294;28;20109;-75
2021/06/16 03:17:26;;;;;;;;;;;;;;;-144.31;73.11;74638.97;4977144;28;20286;-74
2021/06/16 03:19:54;;;;;;;;;;;;;;;-144.31;72.97;74636.97;4960617;28;20020;-75
2021/06/16 03:22:20;;;;;;;;;;;;;;;-144.31;72.85;74634.97;4962469;28;19952;-75
2021/06/16 03:24:47;;;;;;;;;;;;;;;-144.31;72.79;74630.97;4959657;28;19917;-75
2021/06/16 03:27:13;;;;;;;;;;;;;;;-144.31;72.69;74628.97;4963588;28;19976;-75
2021/06/16 03:29:41;;;;;;;;;;;;;;;-144.31;72.59;74619.00;4976219;28;19918;-75
2021/06/16 03:32:08;;;;;;;;;;;;;;;-144.31;72.54;74625.00;4973572;28;20319;-75
2021/06/16 03:34:34;;;;;;;;;;;;;;;-144.31;72.45;74623.00;4972407;28;19926;-75
2021/06/16 03:37:01;;;;;;;;;;;;;;;-144.31;72.38;74619.00;4961248;28;19918;-75
2021/06/16 03:39:27;;;;;;;;;;;;;;;-144.31;72.31;74613.00;4969133;28;19914;-74
2021/06/16 03:41:53;;;;;;;;;;;;;;;-144.31;72.27;74615.00;4955015;28;19925;-75
2021/06/16 03:44:19;;;;;;;;;;;;;;;-144.31;72.25;74613.00;4960188;28;19922;-75
2021/06/16 03:46:45;;;;;;;;;;;;;;;-144.31;72.20;74613.00;4957807;28;19918;-74
2021/06/16 03:49:11;;;;;;;;;;;;;;;-144.31;72.17;74611.00;4976002;28;19924;-74
2021/06/16 03:51:39;;;;;;;;;;;;;;;-144.31;72.16;74607.03;4958036;28;19921;-74
2021/06/16 03:54:11;;;;;;;;;;;;;;;-144.31;72.14;74599.03;4974547;28;19926;-74
2021/06/16 03:56:40;;;;;;;;;;;;;;;-144.31;72.16;74599.03;4960798;28;19965;-75
2021/06/16 03:59:06;;;;;;;;;;;;;;;-144.31;72.13;74595.03;4973597;28;20748;-75
2021/06/16 04:01:36;;;;;;;;;;;;;;;-144.31;72.15;74587.06;4970894;28;19918;-74
2021/06/16 04:04:05;;;;;;;;;;;;;;;-144.31;72.15;74577.06;4961191;28;20447;-74
2021/06/16 04:06:30;;;;;;;;;;;;;;;-144.31;72.17;74567.09;4958398;28;19953;-74
2021/06/16 04:08:56;;;;;;;;;;;;;;;-144.31;72.18;74557.09;4957745;28;19950;-75
2021/06/16 04:11:21;;;;;;;;;;;;;;;-144.31;72.17;74549.13;4956943;28;19920;-75
2021/06/16 04:13:49;;;;;;;;;;;;;;;-144.31;72.23;74543.13;4978028;28;19971;-74
2021/06/16 04:16:15;;;;;;;;;;;;;;;-144.31;72.35;74535.13;4962438;28;19949;-75
2021/06/16 04:18:40;;;;;;;;;;;;;;;-144.31;72.38;74527.16;4960217;28;19945;-75
2021/06/16 04:21:09;;;;;;;;;;;;;;;-144.31;72.47;74517.16;4958615;28;19981;-75
2021/06/16 04:23:34;;;;;;;;;;;;;;;-144.31;72.54;74499.19;4960754;28;19918;-75
2021/06/16 04:25:59;;;;;;;;;;;;;;;-144.31;72.64;74483.22;4959604;28;20022;-74
2021/06/16 04:28:25;;;;;;;;;;;;;;;-144.31;72.74;74485.22;4958102;28;20444;-75
2021/06/16 04:30:50;;;;;;;;;;;;;;;-144.31;72.88;74471.25;4960847;28;19918;-74
2021/06/16 04:33:16;;;;;;;;;;;;;;;-144.31;73.02;74467.25;4957742;28;19969;-74
2021/06/16 04:35:42;;;;;;;;;;;;;;;-144.31;73.16;74455.25;4957454;28;20392;-75
2021/06/16 04:38:07;;;;;;;;;;;;;;;-144.31;73.30;74449.28;4961812;28;19918;-75
2021/06/16 04:40:32;;;;;;;;;;;;;;;-144.31;73.43;74439.28;4977250;28;19922;-75
2021/06/16 04:42:58;;;;;;;;;;;;;;;-144.31;73.51;74435.28;4961807;28;20350;-75
2021/06/16 04:45:24;;;;;;;;;;;;;;;-144.31;73.62;74431.31;4961274;28;20552;-74
2021/06/16 04:47:51;;;;;;;;;;;;;;;-144.31;73.72;74419.31;4961964;28;19988;-75
2021/06/16 04:50:19;;;;;;;;;;;;;;;-144.31;73.81;74411.34;4970486;28;19918;-75
2021/06/16 04:52:45;;;;;;;;;;;;;;;-144.31;73.88;74395.38;4961645;28;20284;-75
2021/06/16 04:55:14;;;;;;;;;;;;;;;-144.31;74.01;74387.38;4963932;28;19961;-75
2021/06/16 04:57:39;;;;;;;;;;;;;;;-144.31;74.14;74379.38;4959675;28;19985;-75
2021/06/16 05:00:05;;;;;;;;;;;;;;;-144.31;74.28;74365.41;4959869;28;19945;-75
2021/06/16 05:02:31;;;;;;;;;;;;;;;-144.31;74.46;74351.44;4957978;28;19914;-75
2021/06/16 05:04:56;;;;;;;;;;;;;;;-144.31;74.67;74347.44;4961582;28;20332;-75
2021/06/16 05:07:22;;;;;;;;;;;;;;;-144.31;74.94;74333.47;4964085;28;19922;-75
2021/06/16 05:09:47;;;;;;;;;;;;;;;-144.31;75.16;74319.50;4973440;28;19921;-75
2021/06/16 05:12:12;;;;;;;;;;;;;;;-144.31;75.48;74303.50;4962349;28;20030;-75
2021/06/16 05:14:38;;;;;;;;;;;;;;;-144.31;75.80;74277.56;4961122;28;19922;-75
2021/06/16 05:17:04;;;;;;;;;;;;;;;-144.31;76.20;74257.59;4978616;28;19921;-75
2021/06/16 05:19:29;;;;;;;;;;;;;;;-144.31;76.68;74235.63;4960674;28;20378;-75
2021/06/16 05:22:00;;;;;;;;;;;;;;;-144.31;77.15;74211.66;4979660;28;19918;-75
2021/06/16 05:24:25;;;;;;;;;;;;;;;-144.31;77.75;74171.72;4959878;28;19996;-75
2021/06/16 05:26:53;;;;;;;;;;;;;;;-144.31;78.45;74151.78;4963307;28;20013;-75
2021/06/16 05:29:18;;;;;;;;;;;;;;;-144.31;79.14;74133.78;4968350;28;19941;-75
2021/06/16 05:31:44;;;;;;;;;;;;;;;-144.31;79.88;74119.81;4963550;28;19977;-75
2021/06/16 05:34:09;;;;;;;;;;;;;;;-144.31;80.59;74109.84;4965551;28;19918;-76
2021/06/16 05:36:35;;;;;;;;;;;;;;;-144.31;81.11;74093.88;4965013;28;20398;-75
2021/06/16 05:39:01;;;;;;;;;;;;;;;-144.31;81.51;74075.91;4961336;28;19918;-72
2021/06/16 05:41:26;;;;;;;;;;;;;;;-144.31;81.69;74055.94;4974397;28;19921;-73
2021/06/16 05:43:51;;;;;;;;;;;;;;;-144.31;81.90;74037.97;4964783;28;19918;-73
2021/06/16 05:46:17;;;;;;;;;;;;;;;-144.31;82.51;74022.00;4963774;28;20052;-74
2021/06/16 05:48:42;;;;;;;;;;;;;;;-144.31;83.38;74002.03;4960525;28;20280;-76
2021/06/16 05:51:10;;;;;;;;;;;;;;;-144.31;84.46;73980.06;4974764;28;19914;-74
2021/06/16 05:53:35;;;;;;;;;;;;;;;-144.31;86.06;73952.13;4962167;28;19922;-73
2021/06/16 05:56:03;;;;;;;;;;;;;;;-144.31;87.22;73926.16;4960772;28;20386;-73
2021/06/16 05:58:28;;;;;;;;;;;;;;;-144.31;87.67;73910.19;4963901;28;20412;-73
2021/06/16 06:00:54;;;;;;;;;;;;;;;-144.31;87.49;73884.22;4960862;28;19920;-73
2021/06/16 06:03:19;;;;;;;;;;;;;;;-144.31;87.70;73858.28;4979116;28;19960;-73
2021/06/16 06:05:44;;;;;;;;;;;;;;;-144.31;87.88;73846.28;4962270;28;19917;-73
2021/06/16 06:08:10;;;;;;;;;;;;;;;-144.31;87.88;73812.34;4972519;28;19918;-73
2021/06/16 06:10:35;;;;;;;;;;;;;;;-144.31;88.59;73782.41;4960902;28;20395;-73
2021/06/16 06:13:03;;;;;;;;;;;;;;;-144.31;89.90;73758.44;4963889;28;19918;-73
2021/06/16 06:15:28;;;;;;;;;;;;;;;-144.31;91.35;73730.50;4957873;28;19918;-73
2021/06/16 06:17:54;;;;;;;;;;;;;;;-144.31;92.25;73696.56;4960231;28;19925;-73
2021/06/16 06:20:20;;;;;;;;;;;;;;;-144.31;94.95;73660.63;4959206;28;19918;-73
2021/06/16 06:22:45;;;;;;;;;;;;;;;-144.31;98.49;73636.69;4976064;28;19921;-73
2021/06/16 06:25:11;;;;;;;;;;;;;;;-144.31;100.00;73610.72;4959916;28;19961;-74
2021/06/16 06:27:37;;;;;;;;;;;;;;;-144.31;100.00;73612.72;4976958;28;20285;-73
2021/06/16 06:30:06;;;;;;;;;;;;;;;-144.31;100.00;73574.78;4958562;28;20399;-73
2021/06/16 06:32:31;;;;;;;;;;;;;;;-144.31;100.00;73588.75;4961936;28;20308;-74
2021/06/16 06:34:57;;;;;;;;;;;;;;;-144.31;100.00;73574.78;4963417;28;19914;-74
2021/06/16 06:37:22;;;;;;;;;;;;;;;-144.31;100.00;73548.84;4972202;28;19918;-74
2021/06/16 06:39:49;;;;;;;;;;;;;;;-144.31;100.00;73542.84;4962022;28;20005;-74
2021/06/16 06:42:15;;;;;;;;;;;;;;;-144.31;100.00;73504.91;4964378;28;20768;-75
2021/06/16 06:44:41;;;;;;;;;;;;;;;-144.31;100.00;73467.00;4962173;28;19972;-76
2021/06/16 06:47:06;;;;;;;;;;;;;;;-144.31;100.00;73461.00;4959858;28;19926;-76
2021/06/16 06:49:32;;;;;;;;;;;;;;;-144.31;100.00;73423.06;4977379;28;19945;-76
2021/06/16 06:51:57;;;;;;;;;;;;;;;-144.31;100.00;73413.09;4962010;28;19914;-77
2021/06/16 06:54:22;;;;;;;;;;;;;;;-144.31;100.00;73373.16;4960088;28;19922;-76
2021/06/16 06:56:48;;;;;;;;;;;;;;;-144.31;100.00;73333.25;4949892;28;20309;-76
2021/06/16 06:59:13;;;;;;;;;;;;;;;-144.31;100.00;73317.28;4959962;28;19933;-77
2021/06/16 07:01:41;;;;;;;;;;;;;;;-144.31;100.00;73293.31;4977714;28;19968;-76
2021/06/16 07:04:08;;;;;;;;;;;;;;;-144.31;100.00;73277.34;4953696;28;20503;-77
2021/06/16 07:06:34;;;;;;;;;;;;;;;-144.31;100.00;73237.44;4974426;28;20057;-77
2021/06/16 07:08:59;;;;;;;;;;;;;;;-144.31;100.00;73207.47;4956671;28;20317;-77
2021/06/16 07:11:25;;;;;;;;;;;;;;;-144.31;100.00;73245.41;4960765;28;20053;-77
2021/06/16 07:13:50;;;;;;;;;;;;;;;-144.31;100.00;73145.59;4961794;28;19922;-77
2021/06/16 07:16:16;;;;;;;;;;;;;;;-144.31;100.00;73097.69;4974846;28;19918;-77
2021/06/16 07:18:41;;;;;;;;;;;;;;;-144.31;100.00;73077.72;4956324;28;19921;-77
2021/06/16 07:21:07;;;;;;;;;;;;;;;-144.31;100.00;73073.75;4944453;28;19974;-77
2021/06/16 07:23:33;;;;;;;;;;;;;;;-144.31;100.00;73041.81;4957067;28;19914;-77
2021/06/16 07:25:59;;;;;;;;;;;;;;;-144.31;100.00;72999.88;4965125;28;19925;-76
2021/06/16 07:28:24;;;;;;;;;;;;;;;-144.31;100.00;72991.91;4991602;28;20446;-76
2021/06/16 07:30:49;;;;;;;;;;;;;;;-144.31;100.00;72981.94;4965814;28;19922;-77
2021/06/16 07:33:15;;;;;;;;;;;;;;;-144.31;100.00;72938.00;4966261;28;19945;-76
2021/06/16 07:35:44;;;;;;;;;;;;;;;-144.31;100.00;72918.06;4973555;28;20012;-77
2021/06/16 07:38:09;;;;;;;;;;;;;;;-144.31;100.00;72940.00;4976988;28;19961;-77
2021/06/16 07:40:35;;;;;;;;;;;;;;;-144.31;100.00;72858.16;4980793;28;20064;-77
2021/06/16 07:43:00;;;;;;;;;;;;;;;-144.31;100.00;72920.06;4951902;28;20017;-77
2021/06/16 07:45:26;;;;;;;;;;;;;;;-144.31;100.00;72846.19;4960739;28;20381;-77
2021/06/16 07:47:51;;;;;;;;;;;;;;;-144.31;100.00;72816.25;4956866;28;19918;-77
2021/06/16 07:50:17;;;;;;;;;;;;;;;-144.31;100.00;72764.38;4972832;28;19914;-77
2021/06/16 07:52:42;;;;;;;;;;;;;;;-144.31;100.00;72760.38;4957336;28;20711;-77
2021/06/16 07:55:08;;;;;;;;;;;;;;;-144.31;100.00;72754.38;4978283;28;19922;-75
2021/06/16 07:57:33;;;;;;;;;;;;;;;-144.31;100.00;72700.50;4961898;28;19969;-74
2021/06/16 07:59:59;;;;;;;;;;;;;;;-144.31;100.00;72700.50;4960726;28;19925;-75
2021/06/16 08:02:26;;;;;;;;;;;;;;;-144.31;100.00;72690.50;4945874;28;19919;-77
2021/06/16 08:04:53;;;;;;;;;;;;;;;-144.31;100.00;72646.59;4960973;28;20036;-76
2021/06/16 08:07:18;;;;;;;;;;;;;;;-144.31;100.00;72620.66;4971580;28;19976;-76
2021/06/16 08:09:44;;;;;;;;;;;;;;;-144.31;100.00;72622.66;4960947;28;19918;-77
2021/06/16 08:12:10;;;;;;;;;;;;;;;-144.31;100.00;72634.63;4974504;28;19997;-76
2021/06/16 08:14:36;;;;;;;;;;;;;;;-144.31;100.00;72630.63;4960293;28;19934;-77
2021/06/16 08:17:01;;;;;;;;;;;;;;;-144.31;100.00;72718.47;4971415;28;19918;-77
2021/06/16 08:19:27;;;;;;;;;;;;;;;-144.31;100.00;72724.44;4975518;28;19922;-76
2021/06/16 08:21:52;;;;;;;;;;;;;;;-144.31;100.00;72692.50;4961110;28;20323;-76
2021/06/16 08:24:18;;;;;;;;;;;;;;;-144.31;100.00;72600.69;4960760;28;19968;-76
2021/06/16 08:26:43;;;;;;;;;;;;;;;-144.31;100.00;72622.66;4941197;28;19917;-77
2021/06/16 08:29:08;;;;;;;;;;;;;;;-144.31;100.00;72590.72;4954793;28;19973;-76
2021/06/16 08:31:34;;;;;;;;;;;;;;;-144.31;100.00;72684.53;4953770;28;19922;-77
2021/06/16 08:33:59;;;;;;;;;;;;;;;-144.31;100.00;72562.78;4947487;28;19984;-77
2021/06/16 08:36:25;;;;;;;;;;;;;;;-144.31;100.00;72648.59;4959262;28;20008;-77
2021/06/16 08:38:50;;;;;;;;;;;;;;;-144.31;100.00;72578.75;4961156;28;20451;-76
2021/06/16 08:41:16;;;;;;;;;;;;;;;-144.31;100.00;72556.78;4960673;28;20435;-73
2021/06/16 08:43:43;;;;;;;;;;;;;;;-144.31;100.00;72594.72;4961014;28;19921;-72
2021/06/16 08:46:12;;;;;;;;;;;;;;;-144.31;100.00;72638.63;4963565;28;20357;-73
2021/06/16 08:48:40;;;;;;;;;;;;;;;-144.31;100.00;72540.81;4959113;28;19926;-73
2021/06/16 08:51:07;;;;;;;;;;;;;;;-144.31;100.00;72453.00;4962529;28;19964;-73
2021/06/16 08:53:32;;;;;;;;;;;;;;;-144.31;100.00;72395.13;4960824;28;20061;-73
2021/06/16 08:56:00;;;;;;;;;;;;;;;-144.31;100.00;72433.06;4962827;28;20013;-73
2021/06/16 08:58:26;;;;;;;;;;;;;;;-144.31;100.00;72355.22;4960170;28;19926;-73
2021/06/16 09:00:52;;;;;;;;;;;;;;;-144.31;100.00;72363.19;4964894;28;19914;-73
2021/06/16 09:03:17;;;;;;;;;;;;;;;-144.31;100.00;72490.94;4960649;28;20312;-73
2021/06/16 09:05:43;;;;;;;;;;;;;;;-144.31;100.00;72429.06;4959738;28;19918;-73
2021/06/16 09:08:19;;;;;;;;;;;;;;;-144.31;100.00;72536.84;4960826;28;20274;-73
2021/06/16 09:10:54;;;;;;;;;;;;;;;-144.31;100.00;72465.00;4977291;28;19918;-73
2021/06/16 09:13:30;;;;;;;;;;;;;;;-144.31;100.00;72474.97;4963919;28;20308;-73
2021/06/16 09:15:56;;;;;;;;;;;;;;;-144.31;100.00;72451.03;4975244;28;19925;-72
2021/06/16 09:18:21;;;;;;;;;;;;;;;-144.31;100.00;72393.13;4963176;28;19914;-73
2021/06/16 09:20:48;;;;;;;;;;;;;;;-144.31;100.00;72397.13;4961322;28;19914;-73
2021/06/16 09:23:13;;;;;;;;;;;;;;;-144.31;100.00;72351.22;4972101;28;19914;-73
2021/06/16 09:25:39;;;;;;;;;;;;;;;-144.31;100.00;72413.09;4960792;28;19925;-73
2021/06/16 09:28:05;;;;;;;;;;;;;;;-144.31;100.00;72455.00;4975575;28;19968;-73
2021/06/16 09:30:31;;;;;;;;;;;;;;;-144.31;100.00;72319.31;4961404;28;19950;-73
2021/06/16 09:33:04;;;;;;;;;;;;;;;-144.31;100.00;72285.38;4960003;28;19914;-73
2021/06/16 09:35:37;;;;;;;;;;;;;;;-144.31;100.00;72351.22;4961199;28;19926;-73
2021/06/16 09:38:07;;;;;;;;;;;;;;;-144.31;100.00;72395.13;4960141;28;19978;-73
2021/06/16 09:40:43;;;;;;;;;;;;;;;-144.31;100.00;72399.13;4961683;28;19918;-74
2021/06/16 09:43:12;;;;;;;;;;;;;;;-144.31;100.00;72465.00;4972890;28;20012;-73
2021/06/16 09:45:39;;;;;;;;;;;;;;;-144.31;100.00;72383.16;4961626;28;19941;-73
2021/06/16 09:48:20;;;;;;;;;;;;;;;-144.31;100.00;72255.44;4958078;28;20033;-74
2021/06/16 09:50:46;;;;;;;;;;;;;;;-144.31;100.00;72231.50;4974667;28;20329;-73
2021/06/16 09:53:12;;;;;;;;;;;;;;;-144.31;100.00;72369.19;4961202;28;19955;-73
2021/06/16 09:55:37;;;;;;;;;;;;;;;-144.31;100.00;72201.56;4959136;28;20316;-74
2021/06/16 09:58:04;;;;;;;;;;;;;;;-144.31;100.00;72107.75;4960286;28;20032;-76
2021/06/16 10:00:33;;;;;;;;;;;;;;;-144.31;100.00;72129.72;4979135;28;19926;-77
2021/06/16 10:03:14;;;;;;;;;;;;;;;-144.31;100.00;72295.34;4973332;28;19981;-76
2021/06/16 10:05:59;;;;;;;;;;;;;;;-144.31;100.00;72267.41;4958749;28;19918;-75
2021/06/16 10:08:25;;;;;;;;;;;;;;;-144.31;100.00;72085.81;4954918;28;20469;-75
2021/06/16 10:10:51;;;;;;;;;;;;;;;-144.31;100.00;72079.81;4958444;28;19914;-76
2021/06/16 10:13:20;;;;;;;;;;;;;;;-144.31;100.00;72159.66;4962007;28;19917;-76
2021/06/16 10:15:45;;;;;;;;;;;;;;;-144.31;100.00;72161.63;4959417;28;19953;-75
2021/06/16 10:18:11;;;;;;;;;;;;;;;-144.31;100.00;72135.69;4958854;28;19921;-76
2021/06/16 10:20:36;;;;;;;;;;;;;;;-144.31;100.00;72261.44;4975139;28;19981;-75
2021/06/16 10:23:02;;;;;;;;;;;;;;;-144.31;100.00;72167.63;4957194;28;19957;-76
2021/06/16 10:25:28;;;;;;;;;;;;;;;-144.31;100.00;72167.63;4960851;28;19964;-76
2021/06/16 10:27:57;;;;;;;;;;;;;;;-144.31;100.00;72141.69;4974998;28;20012;-77
2021/06/16 10:30:25;;;;;;;;;;;;;;;-144.31;100.00;72067.84;4972801;28;19925;-76
2021/06/16 10:32:53;;;;;;;;;;;;;;;-144.31;100.00;72191.56;4975435;28;19924;-77
2021/06/16 10:35:21;;;;;;;;;;;;;;;-144.31;100.00;72103.78;4976004;28;19922;-76
2021/06/16 10:37:47;;;;;;;;;;;;;;;-144.31;100.00;72065.84;4961033;28;19920;-77
2021/06/16 10:40:12;;;;;;;;;;;;;;;-144.31;100.00;71920.19;4949815;28;19932;-77
2021/06/16 10:42:56;;;;;;;;;;;;;;;-144.31;100.00;71936.16;4960178;28;19922;-77
2021/06/16 10:45:22;;;;;;;;;;;;;;;-144.31;100.00;71892.25;4958223;28;19922;-77
2021/06/16 10:48:01;;;;;;;;;;;;;;;-144.31;96.43;71974.06;4959532;28;20312;-77
2021/06/16 10:50:48;;;;;;;;;;;;;;;-144.31;100.00;71954.09;4975000;28;19994;-77
2021/06/16 10:53:15;;;;;;;;;;;;;;;-144.31;100.00;71974.06;4959216;28;19977;-76
2021/06/16 10:55:56;;;;;;;;;;;;;;;-144.31;93.07;71944.13;4956962;28;20523;-76
2021/06/16 10:58:25;;;;;;;;;;;;;;;-144.31;91.09;71972.06;4958385;28;19941;-76
2021/06/16 11:01:11;;;;;;;;;;;;;;;-144.31;100.00;72175.59;4975353;28;19922;-75
2021/06/16 11:03:45;;;;;;;;;;;;;;;-144.31;100.00;72189.59;4961575;28;19917;-77
2021/06/16 11:06:31;;;;;;;;;;;;;;;-144.31;100.00;72095.78;4964375;28;19919;-76
2021/06/16 11:08:56;;;;;;;;;;;;;;;-144.31;100.00;71816.41;4961591;28;19918;-76
2021/06/16 11:11:23;;;;;;;;;;;;;;;-144.31;98.98;71892.25;4976434;28;19914;-77
2021/06/16 11:13:49;;;;;;;;;;;;;;;-144.31;96.35;72031.94;4969445;28;19925;-77
2021/06/16 11:16:36;;;;;;;;;;;;;;;-144.31;100.00;72017.97;4969410;28;19914;-76
2021/06/16 11:19:21;;;;;;;;;;;;;;;-144.31;87.72;71862.31;4959103;28;19985;-77
2021/06/16 11:21:46;;;;;;;;;;;;;;;-144.31;90.84;72011.97;4960627;28;19933;-77
2021/06/16 11:24:12;;;;;;;;;;;;;;;-144.31;84.98;71788.47;4975611;28;19918;-76
2021/06/16 11:26:41;;;;;;;;;;;;;;;-144.31;90.74;71610.88;4973830;28;20064;-77
2021/06/16 11:29:09;;;;;;;;;;;;;;;-144.31;89.46;71728.63;4946162;28;19993;-77
2021/06/16 11:31:53;;;;;;;;;;;;;;;-144.31;90.91;71926.16;4946173;28;19986;-77
2021/06/16 11:34:37;;;;;;;;;;;;;;;-144.31;88.26;71918.19;4964008;28;19922;-77
2021/06/16 11:37:02;;;;;;;;;;;;;;;-144.31;94.10;71926.16;4960053;28;20009;-77
2021/06/16 11:39:28;;;;;;;;;;;;;;;-144.31;83.90;71537.06;4963458;28;20004;-77
2021/06/16 11:41:54;;;;;;;;;;;;;;;-144.31;75.23;71443.28;4964732;28;20343;-77
2021/06/16 11:44:20;;;;;;;;;;;;;;;-144.31;70.69;71403.38;4968069;28;19968;-78
2021/06/16 11:46:47;;;;;;;;;;;;;;;-144.31;68.34;71377.44;4975670;28;19918;-77
2021/06/16 11:49:17;;;;;;;;;;;;;;;-144.31;69.35;71359.47;4982328;28;19922;-77
2021/06/16 11:51:44;;;;;;;;;;;;;;;-144.31;68.45;71407.38;4966835;28;19921;-77
2021/06/16 11:54:32;;;;;;;;;;;;;;;-144.31;63.93;71191.88;4973893;28;20380;-77
2021/06/16 11:57:04;;;;;;;;;;;;;;;-144.31;70.86;71483.19;4981062;28;20053;-77
2021/06/16 11:59:31;;;;;;;;;;;;;;;-144.31;75.11;71541.06;4969172;28;19910;-77
2021/06/16 12:02:06;;;;;;;;;;;;;;;-144.31;73.57;71559.00;4974665;28;19944;-77
2021/06/16 12:04:51;;;;;;;;;;;;;;;-144.31;72.36;71323.56;4979978;28;20281;-77
2021/06/16 12:07:28;;;;;;;;;;;;;;;-144.31;65.93;71239.78;4960061;28;19976;-77
2021/06/16 12:09:56;;;;;;;;;;;;;;;-144.31;59.77;71104.09;4991055;28;19953;-77
2021/06/16 12:12:22;;;;;;;;;;;;;;;-144.31;57.89;71048.25;4987275;28;19921;-77
2021/06/16 12:14:48;;;;;;;;;;;;;;;-144.31;68.53;71325.56;4985947;28;19969;-77
2021/06/16 12:17:13;;;;;;;;;;;;;;;-144.31;73.02;71565.00;4956320;28;20862;-77
2021/06/16 12:19:39;;;;;;;;;;;;;;;-144.31;73.35;71435.31;4966720;28;20036;-77
2021/06/16 12:22:06;;;;;;;;;;;;;;;-144.31;74.53;71600.91;4973878;28;19918;-77
2021/06/16 12:24:34;;;;;;;;;;;;;;;-144.31;78.22;71760.53;4976594;28;20001;-78